sensor_id;sensor_type;location;lat;lon;timestamp;temperature;humidity
32728;DHT22;55292;51.844;19.246;2022-10-15T00:04:32;9.30;99.90
32728;DHT22;55292;51.844;19.246;2022-10-15T00:09:34;9.40;99.90
32728;DHT22;55292;51.844;19.246;2022-10-15T00:14:37;9.50;99.90
32728;DHT22;55292;51.844;19.246;2022-10-15T00:19:39;9.60;99.90
32728;DHT22;55292;51.844;19.246;2022-10-15T00:24:42;9.60;99.90
32728;DHT22;55292;51.844;19.246;2022-10-15T00:29:44;9.60;99.90
32728;DHT22;55292;51.844;19.246;2022-10-15T00:34:46;9.70;99.90
32728;DHT22;55292;51.844;19.246;2022-10-15T00:39:49;9.70;99.90
32728;DHT22;55292;51.844;19.246;2022-10-15T00:44:52;9.70;99.90
32728;DHT22;55292;51.844;19.246;2022-10-15T00:55:05;9.80;99.90
32728;DHT22;55292;51.844;19.246;2022-10-15T01:00:09;9.80;99.90
32728;DHT22;55292;51.844;19.246;2022-10-15T01:05:14;9.80;99.90
32728;DHT22;55292;51.844;19.246;2022-10-15T01:10:17;9.90;99.90
32728;DHT22;55292;51.844;19.246;2022-10-15T01:15:28;9.90;99.90
32728;DHT22;55292;51.844;19.246;2022-10-15T01:20:47;9.90;99.90
32728;DHT22;55292;51.844;19.246;2022-10-15T01:30:58;9.80;99.90
32728;DHT22;55292;51.844;19.246;2022-10-15T01:41:09;9.80;99.90
32728;DHT22;55292;51.844;19.246;2022-10-15T01:46:17;9.80;99.90
32728;DHT22;55292;51.844;19.246;2022-10-15T01:51:39;9.70;99.90
32728;DHT22;55292;51.844;19.246;2022-10-15T01:56:43;9.70;99.90
32728;DHT22;55292;51.844;19.246;2022-10-15T02:01:53;9.70;99.90
32728;DHT22;55292;51.844;19.246;2022-10-15T02:07:07;9.70;99.90
32728;DHT22;55292;51.844;19.246;2022-10-15T02:17:35;9.60;99.90
32728;DHT22;55292;51.844;19.246;2022-10-15T02:22:44;9.50;99.90
32728;DHT22;55292;51.844;19.246;2022-10-15T02:27:49;9.50;99.90
32728;DHT22;55292;51.844;19.246;2022-10-15T02:32:53;9.40;99.90
32728;DHT22;55292;51.844;19.246;2022-10-15T02:37:56;9.50;99.90
32728;DHT22;55292;51.844;19.246;2022-10-15T02:43:03;9.50;99.90
32728;DHT22;55292;51.844;19.246;2022-10-15T02:48:06;9.50;99.90
32728;DHT22;55292;51.844;19.246;2022-10-15T02:53:09;9.50;99.90
32728;DHT22;55292;51.844;19.246;2022-10-15T02:58:14;9.50;99.90
32728;DHT22;55292;51.844;19.246;2022-10-15T03:03:18;9.20;99.90
32728;DHT22;55292;51.844;19.246;2022-10-15T03:08:21;8.90;99.90
32728;DHT22;55292;51.844;19.246;2022-10-15T03:13:24;8.70;99.90
32728;DHT22;55292;51.844;19.246;2022-10-15T03:18:27;8.60;99.90
32728;DHT22;55292;51.844;19.246;2022-10-15T03:23:29;8.60;99.90
32728;DHT22;55292;51.844;19.246;2022-10-15T03:28:41;8.60;99.90
32728;DHT22;55292;51.844;19.246;2022-10-15T03:33:47;8.50;99.90
32728;DHT22;55292;51.844;19.246;2022-10-15T03:38:51;8.40;99.90
32728;DHT22;55292;51.844;19.246;2022-10-15T03:43:54;8.30;99.90
32728;DHT22;55292;51.844;19.246;2022-10-15T03:49:01;8.00;99.90
32728;DHT22;55292;51.844;19.246;2022-10-15T03:54:04;7.80;99.90
32728;DHT22;55292;51.844;19.246;2022-10-15T03:59:13;7.50;99.90
32728;DHT22;55292;51.844;19.246;2022-10-15T04:04:15;7.40;99.90
32728;DHT22;55292;51.844;19.246;2022-10-15T04:09:18;7.80;99.90
32728;DHT22;55292;51.844;19.246;2022-10-15T04:14:20;8.20;99.90
32728;DHT22;55292;51.844;19.246;2022-10-15T04:19:23;8.10;99.90
32728;DHT22;55292;51.844;19.246;2022-10-15T04:24:33;8.00;99.90
32728;DHT22;55292;51.844;19.246;2022-10-15T04:29:36;8.10;99.90
32728;DHT22;55292;51.844;19.246;2022-10-15T04:34:48;8.10;99.90
32728;DHT22;55292;51.844;19.246;2022-10-15T04:39:58;8.10;99.90
32728;DHT22;55292;51.844;19.246;2022-10-15T04:45:01;8.10;99.90
32728;DHT22;55292;51.844;19.246;2022-10-15T04:50:03;8.00;99.90
32728;DHT22;55292;51.844;19.246;2022-10-15T04:55:29;8.00;99.90
32728;DHT22;55292;51.844;19.246;2022-10-15T05:00:35;7.90;99.90
32728;DHT22;55292;51.844;19.246;2022-10-15T05:05:59;8.00;99.90
32728;DHT22;55292;51.844;19.246;2022-10-15T05:11:03;8.00;99.90
32728;DHT22;55292;51.844;19.246;2022-10-15T05:16:08;8.10;99.90
32728;DHT22;55292;51.844;19.246;2022-10-15T05:21:11;8.20;99.90
32728;DHT22;55292;51.844;19.246;2022-10-15T05:26:19;8.20;99.90
32728;DHT22;55292;51.844;19.246;2022-10-15T05:31:23;8.30;99.90
32728;DHT22;55292;51.844;19.246;2022-10-15T05:36:34;8.30;99.90
32728;DHT22;55292;51.844;19.246;2022-10-15T05:41:38;8.70;99.90
32728;DHT22;55292;51.844;19.246;2022-10-15T05:46:40;8.50;99.90
32728;DHT22;55292;51.844;19.246;2022-10-15T05:51:46;8.70;99.90
32728;DHT22;55292;51.844;19.246;2022-10-15T05:56:57;9.00;99.90
32728;DHT22;55292;51.844;19.246;2022-10-15T06:01:59;9.30;99.90
32728;DHT22;55292;51.844;19.246;2022-10-15T06:07:03;9.50;99.90
32728;DHT22;55292;51.844;19.246;2022-10-15T06:12:05;12.20;99.90
32728;DHT22;55292;51.844;19.246;2022-10-15T06:17:08;10.00;99.90
32728;DHT22;55292;51.844;19.246;2022-10-15T06:22:10;10.30;99.90
32728;DHT22;55292;51.844;19.246;2022-10-15T06:27:12;10.50;99.90
32728;DHT22;55292;51.844;19.246;2022-10-15T06:32:15;10.60;99.90
32728;DHT22;55292;51.844;19.246;2022-10-15T06:37:17;10.60;99.90
32728;DHT22;55292;51.844;19.246;2022-10-15T06:42:25;10.60;99.90
32728;DHT22;55292;51.844;19.246;2022-10-15T06:47:29;10.60;99.90
32728;DHT22;55292;51.844;19.246;2022-10-15T06:52:32;10.60;99.90
32728;DHT22;55292;51.844;19.246;2022-10-15T06:57:38;10.60;99.90
32728;DHT22;55292;51.844;19.246;2022-10-15T07:02:40;10.60;99.90
32728;DHT22;55292;51.844;19.246;2022-10-15T07:07:49;10.90;99.90
32728;DHT22;55292;51.844;19.246;2022-10-15T07:12:52;11.40;99.90
32728;DHT22;55292;51.844;19.246;2022-10-15T07:17:56;11.70;99.90
32728;DHT22;55292;51.844;19.246;2022-10-15T07:23:02;12.00;99.90
32728;DHT22;55292;51.844;19.246;2022-10-15T07:28:05;12.30;99.90
32728;DHT22;55292;51.844;19.246;2022-10-15T07:33:07;12.60;99.90
32728;DHT22;55292;51.844;19.246;2022-10-15T07:38:10;12.90;99.90
32728;DHT22;55292;51.844;19.246;2022-10-15T07:43:12;12.90;99.90
32728;DHT22;55292;51.844;19.246;2022-10-15T07:48:15;13.10;99.90
32728;DHT22;55292;51.844;19.246;2022-10-15T07:53:17;13.30;99.90
32728;DHT22;55292;51.844;19.246;2022-10-15T07:58:27;13.80;99.90
32728;DHT22;55292;51.844;19.246;2022-10-15T08:03:32;14.00;99.90
32728;DHT22;55292;51.844;19.246;2022-10-15T08:08:35;14.10;99.90
32728;DHT22;55292;51.844;19.246;2022-10-15T08:13:38;14.70;99.90
32728;DHT22;55292;51.844;19.246;2022-10-15T08:18:43;15.10;99.90
32728;DHT22;55292;51.844;19.246;2022-10-15T08:23:46;15.30;99.90
32728;DHT22;55292;51.844;19.246;2022-10-15T08:28:48;15.30;99.90
32728;DHT22;55292;51.844;19.246;2022-10-15T08:33:53;15.00;99.90
32728;DHT22;55292;51.844;19.246;2022-10-15T08:38:56;14.90;99.90
32728;DHT22;55292;51.844;19.246;2022-10-15T08:43:58;14.70;99.90
32728;DHT22;55292;51.844;19.246;2022-10-15T08:49:01;14.60;99.90
32728;DHT22;55292;51.844;19.246;2022-10-15T08:54:04;14.50;99.90
32728;DHT22;55292;51.844;19.246;2022-10-15T09:09:30;15.10;99.90
32728;DHT22;55292;51.844;19.246;2022-10-15T09:14:40;15.40;99.90
32728;DHT22;55292;51.844;19.246;2022-10-15T09:19:44;15.80;99.90
32728;DHT22;55292;51.844;19.246;2022-10-15T09:24:46;16.10;99.90
32728;DHT22;55292;51.844;19.246;2022-10-15T09:45:21;17.30;99.90
32728;DHT22;55292;51.844;19.246;2022-10-15T09:50:41;17.30;99.90
32728;DHT22;55292;51.844;19.246;2022-10-15T09:55:52;17.30;99.90
32728;DHT22;55292;51.844;19.246;2022-10-15T10:01:00;16.90;99.90
32728;DHT22;55292;51.844;19.246;2022-10-15T10:06:09;16.60;99.90
32728;DHT22;55292;51.844;19.246;2022-10-15T10:11:15;16.30;99.90
32728;DHT22;55292;51.844;19.246;2022-10-15T10:16:19;16.20;99.90
32728;DHT22;55292;51.844;19.246;2022-10-15T10:21:23;16.30;99.90
32728;DHT22;55292;51.844;19.246;2022-10-15T10:26:27;16.60;99.90
32728;DHT22;55292;51.844;19.246;2022-10-15T10:31:35;16.90;99.90
32728;DHT22;55292;51.844;19.246;2022-10-15T10:36:48;17.00;99.90
32728;DHT22;55292;51.844;19.246;2022-10-15T10:41:59;17.80;99.90
32728;DHT22;55292;51.844;19.246;2022-10-15T10:47:04;17.90;99.90
32728;DHT22;55292;51.844;19.246;2022-10-15T10:57:26;17.70;99.90
32728;DHT22;55292;51.844;19.246;2022-10-15T11:02:33;17.20;99.90
32728;DHT22;55292;51.844;19.246;2022-10-15T11:07:56;16.60;99.90
32728;DHT22;55292;51.844;19.246;2022-10-15T11:34:26;16.40;99.90
32728;DHT22;55292;51.844;19.246;2022-10-15T11:39:34;16.50;99.90
32728;DHT22;55292;51.844;19.246;2022-10-15T11:44:43;16.50;99.90
32728;DHT22;55292;51.844;19.246;2022-10-15T11:50:11;16.30;99.90
32728;DHT22;55292;51.844;19.246;2022-10-15T11:55:35;16.30;99.90
32728;DHT22;55292;51.844;19.246;2022-10-15T12:00:48;16.20;99.90
32728;DHT22;55292;51.844;19.246;2022-10-15T12:05:53;16.30;99.90
32728;DHT22;55292;51.844;19.246;2022-10-15T12:26:35;16.40;99.90
32728;DHT22;55292;51.844;19.246;2022-10-15T12:36:51;16.60;99.90
32728;DHT22;55292;51.844;19.246;2022-10-15T12:41:59;16.60;99.90
32728;DHT22;55292;51.844;19.246;2022-10-15T12:47:02;16.50;99.90
32728;DHT22;55292;51.844;19.246;2022-10-15T13:07:37;16.10;99.90
32728;DHT22;55292;51.844;19.246;2022-10-15T13:12:41;16.40;99.90
32728;DHT22;55292;51.844;19.246;2022-10-15T13:17:44;16.40;99.90
32728;DHT22;55292;51.844;19.246;2022-10-15T13:22:48;16.40;99.90
32728;DHT22;55292;51.844;19.246;2022-10-15T13:28:21;16.30;99.90
32728;DHT22;55292;51.844;19.246;2022-10-15T13:33:24;16.20;99.90
32728;DHT22;55292;51.844;19.246;2022-10-15T13:38:29;16.00;99.90
32728;DHT22;55292;51.844;19.246;2022-10-15T13:43:32;15.90;99.90
32728;DHT22;55292;51.844;19.246;2022-10-15T13:48:39;15.90;99.90
32728;DHT22;55292;51.844;19.246;2022-10-15T13:53:42;15.90;99.90
32728;DHT22;55292;51.844;19.246;2022-10-15T13:58:45;15.80;99.90
32728;DHT22;55292;51.844;19.246;2022-10-15T14:03:49;15.70;99.90
32728;DHT22;55292;51.844;19.246;2022-10-15T14:08:56;15.70;99.90
32728;DHT22;55292;51.844;19.246;2022-10-15T14:13:58;15.60;99.90
32728;DHT22;55292;51.844;19.246;2022-10-15T14:24:11;15.70;99.90
32728;DHT22;55292;51.844;19.246;2022-10-15T14:29:25;15.50;99.90
32728;DHT22;55292;51.844;19.246;2022-10-15T14:39:37;15.40;99.90
32728;DHT22;55292;51.844;19.246;2022-10-15T14:44:44;15.30;99.90
32728;DHT22;55292;51.844;19.246;2022-10-15T14:49:55;15.20;99.90
32728;DHT22;55292;51.844;19.246;2022-10-15T14:55:04;15.30;99.90
32728;DHT22;55292;51.844;19.246;2022-10-15T15:00:21;15.30;99.90
32728;DHT22;55292;51.844;19.246;2022-10-15T15:05:27;15.40;99.90
32728;DHT22;55292;51.844;19.246;2022-10-15T15:10:29;15.40;99.90
32728;DHT22;55292;51.844;19.246;2022-10-15T15:15:32;15.40;99.90
32728;DHT22;55292;51.844;19.246;2022-10-15T15:20:34;15.40;99.90
32728;DHT22;55292;51.844;19.246;2022-10-15T15:25:36;15.50;99.90
32728;DHT22;55292;51.844;19.246;2022-10-15T15:30:41;15.30;99.90
32728;DHT22;55292;51.844;19.246;2022-10-15T15:35:46;15.30;99.90
32728;DHT22;55292;51.844;19.246;2022-10-15T15:40:52;15.20;99.90
32728;DHT22;55292;51.844;19.246;2022-10-15T15:45:54;15.10;99.90
32728;DHT22;55292;51.844;19.246;2022-10-15T15:50:57;15.00;99.90
32728;DHT22;55292;51.844;19.246;2022-10-15T15:56:00;14.80;99.90
32728;DHT22;55292;51.844;19.246;2022-10-15T16:01:03;14.80;99.90
32728;DHT22;55292;51.844;19.246;2022-10-15T16:06:05;14.90;99.90
32728;DHT22;55292;51.844;19.246;2022-10-15T16:11:08;14.90;99.90
32728;DHT22;55292;51.844;19.246;2022-10-15T16:16:11;14.90;99.90
32728;DHT22;55292;51.844;19.246;2022-10-15T16:21:19;14.90;99.90
32728;DHT22;55292;51.844;19.246;2022-10-15T16:26:21;14.80;99.90
32728;DHT22;55292;51.844;19.246;2022-10-15T16:31:25;14.90;99.90
32728;DHT22;55292;51.844;19.246;2022-10-15T16:36:31;14.80;99.90
32728;DHT22;55292;51.844;19.246;2022-10-15T16:41:33;14.80;99.90
32728;DHT22;55292;51.844;19.246;2022-10-15T16:46:36;14.70;99.90
32728;DHT22;55292;51.844;19.246;2022-10-15T16:51:38;14.60;99.90
32728;DHT22;55292;51.844;19.246;2022-10-15T16:56:44;14.50;99.90
32728;DHT22;55292;51.844;19.246;2022-10-15T17:01:53;14.50;99.90
32728;DHT22;55292;51.844;19.246;2022-10-15T17:06:56;14.40;99.90
32728;DHT22;55292;51.844;19.246;2022-10-15T17:11:59;14.50;99.90
32728;DHT22;55292;51.844;19.246;2022-10-15T17:17:02;14.40;99.90
32728;DHT22;55292;51.844;19.246;2022-10-15T17:22:04;14.40;99.90
32728;DHT22;55292;51.844;19.246;2022-10-15T17:27:07;14.30;99.90
32728;DHT22;55292;51.844;19.246;2022-10-15T17:32:10;14.50;99.90
32728;DHT22;55292;51.844;19.246;2022-10-15T17:37:12;14.50;99.90
32728;DHT22;55292;51.844;19.246;2022-10-15T17:42:15;14.50;99.90
32728;DHT22;55292;51.844;19.246;2022-10-15T17:47:18;14.50;99.90
32728;DHT22;55292;51.844;19.246;2022-10-15T17:52:21;14.40;99.90
32728;DHT22;55292;51.844;19.246;2022-10-15T17:57:26;14.40;99.90
32728;DHT22;55292;51.844;19.246;2022-10-15T18:02:29;14.30;99.90
32728;DHT22;55292;51.844;19.246;2022-10-15T18:07:32;14.30;99.90
32728;DHT22;55292;51.844;19.246;2022-10-15T18:12:34;14.40;99.90
32728;DHT22;55292;51.844;19.246;2022-10-15T18:17:37;14.50;99.90
32728;DHT22;55292;51.844;19.246;2022-10-15T18:22:39;14.50;99.90
32728;DHT22;55292;51.844;19.246;2022-10-15T18:27:42;14.60;99.90
32728;DHT22;55292;51.844;19.246;2022-10-15T18:32:44;14.70;99.90
32728;DHT22;55292;51.844;19.246;2022-10-15T18:37:47;17.40;99.90
32728;DHT22;55292;51.844;19.246;2022-10-15T18:42:51;14.80;99.90
32728;DHT22;55292;51.844;19.246;2022-10-15T18:47:56;14.80;99.90
32728;DHT22;55292;51.844;19.246;2022-10-15T18:52:59;14.80;99.90
32728;DHT22;55292;51.844;19.246;2022-10-15T18:58:04;14.70;99.90
32728;DHT22;55292;51.844;19.246;2022-10-15T19:03:11;14.60;99.90
32728;DHT22;55292;51.844;19.246;2022-10-15T19:08:13;17.00;99.90
32728;DHT22;55292;51.844;19.246;2022-10-15T19:13:22;14.20;99.90
32728;DHT22;55292;51.844;19.246;2022-10-15T19:18:24;13.90;99.90
32728;DHT22;55292;51.844;19.246;2022-10-15T19:23:27;13.50;99.90
32728;DHT22;55292;51.844;19.246;2022-10-15T19:28:29;13.40;99.90
32728;DHT22;55292;51.844;19.246;2022-10-15T19:33:32;13.50;99.90
32728;DHT22;55292;51.844;19.246;2022-10-15T19:38:34;13.50;99.90
32728;DHT22;55292;51.844;19.246;2022-10-15T19:43:43;13.50;99.90
32728;DHT22;55292;51.844;19.246;2022-10-15T19:48:45;13.40;99.90
32728;DHT22;55292;51.844;19.246;2022-10-15T19:53:51;13.40;99.90
32728;DHT22;55292;51.844;19.246;2022-10-15T19:59:02;13.30;99.90
32728;DHT22;55292;51.844;19.246;2022-10-15T20:04:05;13.10;99.90
32728;DHT22;55292;51.844;19.246;2022-10-15T20:09:08;13.10;99.90
32728;DHT22;55292;51.844;19.246;2022-10-15T20:14:11;13.20;99.90
32728;DHT22;55292;51.844;19.246;2022-10-15T20:19:14;13.20;99.90
32728;DHT22;55292;51.844;19.246;2022-10-15T20:24:16;13.20;99.90
32728;DHT22;55292;51.844;19.246;2022-10-15T20:29:19;13.10;99.90
32728;DHT22;55292;51.844;19.246;2022-10-15T20:34:21;13.10;99.90
32728;DHT22;55292;51.844;19.246;2022-10-15T20:39:23;13.10;99.90
32728;DHT22;55292;51.844;19.246;2022-10-15T20:44:26;13.20;99.90
32728;DHT22;55292;51.844;19.246;2022-10-15T20:49:35;13.10;99.90
32728;DHT22;55292;51.844;19.246;2022-10-15T20:54:41;13.20;99.90
32728;DHT22;55292;51.844;19.246;2022-10-15T20:59:43;13.20;99.90
32728;DHT22;55292;51.844;19.246;2022-10-15T21:04:45;13.30;99.90
32728;DHT22;55292;51.844;19.246;2022-10-15T21:09:49;13.30;99.90
32728;DHT22;55292;51.844;19.246;2022-10-15T21:14:52;13.30;99.90
32728;DHT22;55292;51.844;19.246;2022-10-15T21:19:54;13.40;99.90
32728;DHT22;55292;51.844;19.246;2022-10-15T21:24:56;13.40;99.90
32728;DHT22;55292;51.844;19.246;2022-10-15T21:29:59;13.40;99.90
32728;DHT22;55292;51.844;19.246;2022-10-15T21:35:02;13.30;99.90
32728;DHT22;55292;51.844;19.246;2022-10-15T21:40:05;13.40;99.90
32728;DHT22;55292;51.844;19.246;2022-10-15T21:45:08;13.50;99.90
32728;DHT22;55292;51.844;19.246;2022-10-15T21:50:11;13.50;99.90
32728;DHT22;55292;51.844;19.246;2022-10-15T21:55:13;13.50;99.90
32728;DHT22;55292;51.844;19.246;2022-10-15T22:00:16;13.50;99.90
32728;DHT22;55292;51.844;19.246;2022-10-15T22:05:18;13.40;99.90
32728;DHT22;55292;51.844;19.246;2022-10-15T22:10:21;13.20;99.90
32728;DHT22;55292;51.844;19.246;2022-10-15T22:15:23;13.10;99.90
32728;DHT22;55292;51.844;19.246;2022-10-15T22:20:26;13.10;99.90
32728;DHT22;55292;51.844;19.246;2022-10-15T22:25:28;13.00;99.90
32728;DHT22;55292;51.844;19.246;2022-10-15T22:30:33;12.70;99.90
32728;DHT22;55292;51.844;19.246;2022-10-15T22:35:35;12.50;99.90
32728;DHT22;55292;51.844;19.246;2022-10-15T22:40:40;12.30;99.90
32728;DHT22;55292;51.844;19.246;2022-10-15T22:45:43;12.40;99.90
32728;DHT22;55292;51.844;19.246;2022-10-15T22:50:45;12.40;99.90
32728;DHT22;55292;51.844;19.246;2022-10-15T23:01:15;12.60;99.90
32728;DHT22;55292;51.844;19.246;2022-10-15T23:06:18;12.80;99.90
32728;DHT22;55292;51.844;19.246;2022-10-15T23:16:27;12.90;99.90
32728;DHT22;55292;51.844;19.246;2022-10-15T23:26:36;12.80;99.90
32728;DHT22;55292;51.844;19.246;2022-10-15T23:31:39;12.80;99.90
32728;DHT22;55292;51.844;19.246;2022-10-15T23:36:41;12.90;99.90
32728;DHT22;55292;51.844;19.246;2022-10-15T23:41:44;12.80;99.90
32728;DHT22;55292;51.844;19.246;2022-10-15T23:46:47;12.60;99.90
32728;DHT22;55292;51.844;19.246;2022-10-15T23:51:49;12.30;99.90
32728;DHT22;55292;51.844;19.246;2022-10-15T23:56:51;11.90;99.90
